Time;durP1;ratioP1;P1;durP2;ratioP2;P2;SDS_P1;SDS_P2;PMS_P1;PMS_P2;Temp;Humidity;BMP_temperature;BMP_pressure;BME280_temperature;BME280_humidity;BME280_pressure;Samples;Min_cycle;Max_cycle;Signal;HPM_P1;HPM_P2
2023/09/12 00:02:07;;;;;;;46.25;41.55;;;21.10;99.90;;;;;;5083561;28;20475;-80
2023/09/12 00:04:32;;;;;;;43.03;38.72;;;21.10;99.90;;;;;;5065107;28;20098;-80
2023/09/12 00:06:58;;;;;;;45.88;41.22;;;21.10;99.90;;;;;;5078448;28;20050;-80
2023/09/12 00:09:24;;;;;;;48.45;43.35;;;21.10;99.90;;;;;;5065821;28;20070;-81
2023/09/12 00:11:49;;;;;;;45.95;41.25;;;21.00;99.90;;;;;;5061821;28;20045;-80
2023/09/12 00:14:16;;;;;;;44.25;39.92;;;21.00;99.90;;;;;;5056945;28;20036;-80
2023/09/12 00:16:42;;;;;;;50.75;45.55;;;21.00;99.90;;;;;;5084667;28;20072;-80
2023/09/12 00:19:08;;;;;;;47.47;42.67;;;21.00;99.90;;;;;;5083995;28;20508;-80
2023/09/12 00:21:34;;;;;;;46.78;42.15;;;20.90;99.90;;;;;;5084468;28;20056;-80
2023/09/12 00:23:59;;;;;;;48.65;43.53;;;20.90;99.90;;;;;;5068068;28;20407;-78
2023/09/12 00:26:25;;;;;;;49.50;44.50;;;20.90;99.90;;;;;;5074913;28;20136;-80
2023/09/12 00:28:51;;;;;;;49.90;44.78;;;20.90;99.90;;;;;;5081106;28;20044;-80
2023/09/12 00:31:16;;;;;;;47.28;42.42;;;20.90;99.90;;;;;;5078592;28;20032;-80
2023/09/12 00:33:42;;;;;;;48.63;43.50;;;20.90;99.90;;;;;;5074059;28;22337;-80
2023/09/12 00:36:08;;;;;;;49.80;44.60;;;20.90;99.90;;;;;;5062817;28;20044;-76
2023/09/12 00:38:33;;;;;;;51.55;45.83;;;20.90;99.90;;;;;;5061922;28;20056;-79
2023/09/12 00:40:59;;;;;;;48.55;43.28;;;20.90;99.90;;;;;;5063400;28;20076;-79
2023/09/12 00:43:25;;;;;;;50.20;44.90;;;20.90;99.90;;;;;;5077321;28;20048;-79
2023/09/12 00:45:50;;;;;;;49.78;44.72;;;20.90;99.90;;;;;;5057032;28;20051;-80
2023/09/12 00:48:18;;;;;;;52.45;45.78;;;20.90;99.90;;;;;;5081321;28;20036;-80
2023/09/12 00:50:45;;;;;;;53.10;47.33;;;20.90;99.90;;;;;;5063647;28;20153;-80
2023/09/12 00:53:11;;;;;;;53.00;47.35;;;20.90;99.90;;;;;;5067545;28;20044;-79
2023/09/12 00:55:42;;;;;;;49.67;44.33;;;20.90;99.90;;;;;;5082145;28;20036;-79
2023/09/12 00:58:08;;;;;;;53.80;48.00;;;20.90;99.90;;;;;;5075605;28;20051;-79
2023/09/12 01:00:34;;;;;;;56.20;48.08;;;20.80;99.90;;;;;;5076563;28;20064;-79
2023/09/12 01:03:00;;;;;;;50.95;45.65;;;20.80;99.90;;;;;;5084983;28;20048;-79
2023/09/12 01:05:28;;;;;;;53.83;48.00;;;20.80;99.90;;;;;;5075779;28;20071;-79
2023/09/12 01:07:53;;;;;;;49.30;44.28;;;20.80;99.90;;;;;;5076770;28;20500;-79
2023/09/12 01:10:19;;;;;;;49.58;44.65;;;20.80;99.90;;;;;;5059777;28;20050;-79
2023/09/12 01:12:45;;;;;;;46.42;42.00;;;20.80;99.90;;;;;;5060284;28;20498;-79
2023/09/12 01:15:13;;;;;;;50.33;44.95;;;20.80;99.90;;;;;;5051444;28;20051;-79
2023/09/12 01:17:44;;;;;;;46.13;41.47;;;20.80;99.90;;;;;;5063949;28;20052;-80
2023/09/12 01:20:36;;;;;;;53.65;45.35;;;20.80;99.90;;;;;;5084289;28;20078;-79
2023/09/12 01:23:30;;;;;;;48.38;43.40;;;20.80;99.90;;;;;;5059446;28;20056;-79
2023/09/12 01:26:02;;;;;;;52.03;46.30;;;20.70;99.90;;;;;;5078706;28;20040;-79
2023/09/12 01:28:34;;;;;;;49.88;44.58;;;20.70;99.90;;;;;;5075390;28;20115;-79
2023/09/12 01:31:02;;;;;;;44.03;39.65;;;20.70;99.90;;;;;;5060914;28;20051;-79
2023/09/12 01:33:28;;;;;;;43.97;39.42;;;20.70;99.90;;;;;;5053624;28;20056;-79
2023/09/12 01:35:54;;;;;;;44.92;40.53;;;20.70;99.90;;;;;;5067351;28;20416;-79
2023/09/12 01:38:21;;;;;;;44.40;39.70;;;20.60;99.90;;;;;;5079097;28;20041;-79
2023/09/12 01:40:51;;;;;;;;;;;20.60;99.90;;;;;;5080379;28;20086;-79
2023/09/12 01:43:19;;;;;;;44.70;40.13;;;20.50;99.90;;;;;;5066201;28;19923;-79
2023/09/12 01:45:54;;;;;;;47.40;42.60;;;20.50;99.90;;;;;;5086704;28;20047;-79
2023/09/12 01:48:23;;;;;;;54.53;49.15;;;20.50;99.90;;;;;;5084220;28;20048;-79
2023/09/12 01:50:49;;;;;;;49.85;45.00;;;20.50;99.90;;;;;;5081136;28;20339;-79
2023/09/12 01:53:16;;;;;;;49.85;44.67;;;20.50;99.90;;;;;;5083769;28;20039;-79
2023/09/12 01:55:47;;;;;;;48.17;43.10;;;20.40;99.90;;;;;;5063796;28;20160;-79
2023/09/12 01:58:13;;;;;;;51.53;46.00;;;20.40;99.90;;;;;;5080269;28;20294;-79
2023/09/12 02:00:43;;;;;;;53.28;46.63;;;20.40;99.90;;;;;;5081232;28;20045;-79
2023/09/12 02:03:08;;;;;;;49.58;44.42;;;20.30;99.90;;;;;;5077096;28;20055;-79
2023/09/12 02:05:35;;;;;;;47.20;42.60;;;20.30;99.90;;;;;;5059629;28;20048;-79
2023/09/12 02:08:01;;;;;;;53.47;47.85;;;20.30;99.90;;;;;;5078903;28;20039;-79
2023/09/12 02:10:27;;;;;;;55.30;49.58;;;20.30;99.90;;;;;;5086381;28;20487;-79
2023/09/12 02:12:53;;;;;;;55.72;49.63;;;20.30;99.90;;;;;;5068941;28;20044;-79
2023/09/12 02:15:19;;;;;;;51.95;46.63;;;20.30;99.90;;;;;;5059148;28;20055;-79
2023/09/12 02:17:44;;;;;;;52.67;46.88;;;20.30;99.90;;;;;;5079098;28;20086;-79
2023/09/12 02:20:11;;;;;;;50.20;44.97;;;20.30;99.90;;;;;;5059542;28;20553;-79
2023/09/12 02:22:37;;;;;;;50.45;45.20;;;20.30;99.90;;;;;;5078622;28;20114;-79
2023/09/12 02:25:05;;;;;;;49.17;44.25;;;20.20;99.90;;;;;;5076312;28;20041;-79
2023/09/12 02:27:30;;;;;;;48.45;43.55;;;20.20;99.90;;;;;;5086050;28;20487;-79
2023/09/12 02:29:56;;;;;;;48.25;43.47;;;20.20;99.90;;;;;;5067724;28;20047;-79
2023/09/12 02:32:22;;;;;;;49.35;44.15;;;20.20;99.90;;;;;;5062695;28;20052;-79
2023/09/12 02:34:48;;;;;;;52.47;46.97;;;20.10;99.90;;;;;;5058322;28;20044;-79
2023/09/12 02:37:13;;;;;;;52.42;46.80;;;20.10;99.90;;;;;;5058182;28;20102;-79
2023/09/12 02:39:39;;;;;;;48.38;43.58;;;20.10;99.90;;;;;;5063648;28;20135;-79
2023/09/12 02:42:05;;;;;;;52.30;46.58;;;20.00;99.90;;;;;;5073936;28;20040;-79
2023/09/12 02:44:31;;;;;;;53.97;48.20;;;20.10;99.90;;;;;;5076772;28;20043;-79
2023/09/12 02:46:56;;;;;;;53.10;47.58;;;20.10;99.90;;;;;;5076188;28;22002;-79
2023/09/12 02:49:22;;;;;;;52.90;47.42;;;20.00;99.90;;;;;;5087812;28;20036;-79
2023/09/12 02:51:48;;;;;;;52.15;46.70;;;20.00;99.90;;;;;;5067244;28;20109;-79
2023/09/12 02:54:13;;;;;;;52.85;47.30;;;20.00;99.90;;;;;;5084376;28;20569;-79
2023/09/12 02:56:39;;;;;;;50.97;45.67;;;20.00;99.90;;;;;;5075685;28;20033;-79
2023/09/12 02:59:05;;;;;;;51.67;46.25;;;20.00;99.90;;;;;;5069206;28;20127;-79
2023/09/12 03:01:30;;;;;;;50.40;44.97;;;20.00;99.90;;;;;;5082238;28;20116;-79
2023/09/12 03:03:57;;;;;;;54.13;47.75;;;19.90;99.90;;;;;;5057947;28;20164;-79
2023/09/12 03:06:23;;;;;;;58.50;51.10;;;20.00;99.90;;;;;;5080221;28;20075;-79
2023/09/12 03:08:49;;;;;;;57.00;49.85;;;19.90;99.90;;;;;;5080059;28;20675;-79
2023/09/12 03:11:15;;;;;;;54.90;49.07;;;20.00;99.90;;;;;;5083618;28;20076;-79
2023/09/12 03:13:41;;;;;;;53.03;47.35;;;20.00;99.90;;;;;;5066340;28;20074;-78
2023/09/12 03:16:11;;;;;;;55.03;49.30;;;20.00;99.90;;;;;;5071240;28;20058;-79
2023/09/12 03:18:37;;;;;;;52.45;46.50;;;20.00;99.90;;;;;;5080977;28;20043;-79
2023/09/12 03:21:02;;;;;;;50.55;45.40;;;20.00;99.90;;;;;;5065105;28;20557;-79
2023/09/12 03:23:28;;;;;;;49.65;44.38;;;19.90;99.90;;;;;;5085534;28;20444;-79
2023/09/12 03:25:54;;;;;;;62.72;53.05;;;19.90;99.90;;;;;;5068408;28;20420;-79
2023/09/12 03:28:20;;;;;;;56.47;50.65;;;19.90;99.90;;;;;;5068253;28;20043;-79
2023/09/12 03:30:46;;;;;;;57.67;51.75;;;19.90;99.90;;;;;;5058946;28;21022;-79
2023/09/12 03:33:12;;;;;;;57.30;51.20;;;19.90;99.90;;;;;;5060321;28;20093;-79
2023/09/12 03:35:38;;;;;;;61.15;53.17;;;19.90;99.90;;;;;;5063355;28;20302;-79
2023/09/12 03:38:03;;;;;;;63.55;52.15;;;19.90;99.90;;;;;;5064080;28;20112;-79
2023/09/12 03:40:32;;;;;;;64.80;49.67;;;19.90;99.90;;;;;;5059406;28;20058;-79
2023/09/12 03:42:58;;;;;;;53.40;47.80;;;19.90;99.90;;;;;;5065550;28;20090;-79
2023/09/12 03:45:24;;;;;;;164.13;50.97;;;19.90;99.90;;;;;;5061096;28;20111;-79
2023/09/12 03:47:51;;;;;;;55.95;49.78;;;19.80;99.90;;;;;;5064627;28;20042;-79
2023/09/12 03:50:17;;;;;;;52.72;47.50;;;19.90;99.90;;;;;;5077520;28;20055;-79
2023/09/12 03:52:42;;;;;;;57.70;47.53;;;19.90;99.90;;;;;;5059336;28;20446;-79
2023/09/12 03:55:08;;;;;;;66.82;51.30;;;19.90;99.90;;;;;;5060714;28;20049;-79
2023/09/12 03:57:34;;;;;;;64.10;52.17;;;19.90;99.90;;;;;;5083189;28;20043;-78
2023/09/12 04:00:00;;;;;;;69.15;49.15;;;19.90;99.90;;;;;;5060883;28;20047;-79
2023/09/12 04:02:26;;;;;;;199.88;53.28;;;19.90;99.90;;;;;;5055606;28;20040;-78
2023/09/12 04:04:52;;;;;;;110.47;46.30;;;19.90;99.90;;;;;;5077740;28;20161;-79
2023/09/12 04:07:18;;;;;;;83.85;47.60;;;19.90;99.90;;;;;;5071324;28;20050;-79
2023/09/12 04:09:43;;;;;;;62.85;43.40;;;19.80;99.90;;;;;;5075606;28;20663;-79
2023/09/12 04:12:09;;;;;;;68.80;44.25;;;19.80;99.90;;;;;;5064833;28;20044;-79
2023/09/12 04:14:35;;;;;;;49.90;44.78;;;19.80;99.90;;;;;;5075461;28;20040;-79
2023/09/12 04:17:01;;;;;;;55.73;46.73;;;19.80;99.90;;;;;;5057541;28;20040;-79
2023/09/12 04:19:27;;;;;;;114.47;47.40;;;19.80;99.90;;;;;;5055834;28;20044;-79
2023/09/12 04:21:53;;;;;;;61.20;48.33;;;19.70;99.90;;;;;;5079377;28;20044;-79
2023/09/12 04:24:18;;;;;;;65.90;42.70;;;19.70;99.90;;;;;;5063689;28;20064;-79
2023/09/12 04:26:44;;;;;;;232.38;44.08;;;19.70;99.90;;;;;;5079085;28;20048;-79
2023/09/12 04:29:10;;;;;;;50.45;43.10;;;19.70;99.90;;;;;;5084213;28;20123;-79
2023/09/12 04:31:36;;;;;;;195.70;41.07;;;19.60;99.90;;;;;;5079583;28;20039;-79
2023/09/12 04:34:02;;;;;;;66.78;40.38;;;19.60;99.90;;;;;;5081442;28;20306;-79
2023/09/12 04:36:28;;;;;;;126.60;41.00;;;19.60;99.90;;;;;;5061468;28;20046;-79
2023/09/12 04:38:54;;;;;;;128.20;40.28;;;19.50;99.90;;;;;;5065373;28;20054;-79
2023/09/12 04:41:19;;;;;;;88.38;42.80;;;19.50;99.90;;;;;;5086194;28;20410;-79
2023/09/12 04:43:45;;;;;;;110.07;42.38;;;19.50;99.90;;;;;;5071094;28;20106;-79
2023/09/12 04:46:12;;;;;;;160.43;43.90;;;19.50;99.90;;;;;;5060606;28;20044;-79
2023/09/12 04:48:38;;;;;;;237.35;48.00;;;19.50;99.90;;;;;;5082692;28;20043;-79
2023/09/12 04:51:04;;;;;;;127.47;39.93;;;19.50;99.90;;;;;;5082598;28;20486;-79
2023/09/12 04:53:34;;;;;;;75.90;40.03;;;19.40;99.90;;;;;;5064870;28;20055;-79
2023/09/12 04:56:01;;;;;;;98.80;40.65;;;19.40;99.90;;;;;;5084862;28;20044;-79
2023/09/12 04:58:26;;;;;;;56.50;39.63;;;19.40;99.90;;;;;;5068002;28;20119;-79
2023/09/12 05:00:53;;;;;;;62.83;39.22;;;19.50;99.90;;;;;;5082619;28;20415;-79
2023/09/12 05:03:19;;;;;;;;;;;19.40;99.90;;;;;;5057182;28;20056;-79
2023/09/12 05:05:52;;;;;;;179.82;45.00;;;19.40;99.90;;;;;;5062399;28;19921;-79
2023/09/12 05:08:18;;;;;;;109.88;44.70;;;19.40;99.90;;;;;;5061611;28;20126;-79
2023/09/12 05:10:47;;;;;;;107.63;43.05;;;19.40;99.90;;;;;;5061063;28;20522;-79
2023/09/12 05:13:13;;;;;;;88.70;41.72;;;19.40;99.90;;;;;;5080335;28;20039;-79
2023/09/12 05:15:40;;;;;;;64.22;43.25;;;19.40;99.90;;;;;;5059270;28;20044;-79
2023/09/12 05:18:06;;;;;;;118.85;46.58;;;19.30;99.90;;;;;;5060298;28;20367;-79
2023/09/12 05:20:33;;;;;;;95.63;46.28;;;19.40;99.90;;;;;;5061086;28;20047;-79
2023/09/12 05:22:58;;;;;;;74.03;41.87;;;19.40;99.90;;;;;;5079485;28;20055;-79
2023/09/12 05:25:24;;;;;;;62.53;40.22;;;19.40;99.90;;;;;;5066314;28;20083;-79
2023/09/12 05:27:50;;;;;;;56.33;39.10;;;19.40;99.90;;;;;;5070910;28;20036;-79
2023/09/12 05:30:15;;;;;;;64.13;39.22;;;19.40;99.90;;;;;;5059798;28;20059;-79
2023/09/12 05:32:41;;;;;;;64.80;44.95;;;19.40;99.90;;;;;;5065813;28;20040;-78
2023/09/12 05:35:07;;;;;;;69.07;41.88;;;19.40;99.90;;;;;;5064386;28;20054;-79
2023/09/12 05:37:33;;;;;;;85.28;41.40;;;19.40;99.90;;;;;;5063305;28;20608;-79
2023/09/12 05:39:58;;;;;;;73.50;42.42;;;19.40;99.90;;;;;;5082157;28;20048;-79
2023/09/12 05:42:24;;;;;;;103.47;45.63;;;19.40;99.90;;;;;;5063698;28;20376;-79
2023/09/12 05:44:53;;;;;;;105.40;43.50;;;19.40;99.90;;;;;;5082332;28;20032;-77
2023/09/12 05:47:19;;;;;;;80.32;43.72;;;19.40;99.90;;;;;;5068987;28;20104;-75
2023/09/12 05:49:45;;;;;;;42.87;38.50;;;19.40;99.90;;;;;;5087956;28;20035;-76
2023/09/12 05:52:11;;;;;;;57.55;42.38;;;19.30;99.90;;;;;;5077401;28;20468;-77
2023/09/12 05:54:37;;;;;;;64.05;44.45;;;19.30;99.90;;;;;;5084124;28;20036;-76
2023/09/12 05:57:03;;;;;;;48.78;39.75;;;19.30;99.90;;;;;;5069055;28;20036;-76
2023/09/12 05:59:29;;;;;;;56.33;44.20;;;19.30;99.90;;;;;;5082624;28;20059;-76
2023/09/12 06:01:55;;;;;;;69.93;45.20;;;19.30;99.90;;;;;;5062422;28;20517;-76
2023/09/12 06:04:21;;;;;;;93.35;46.22;;;19.30;99.90;;;;;;5061084;28;20058;-75
2023/09/12 06:06:47;;;;;;;44.85;40.13;;;19.30;99.90;;;;;;5081600;28;20052;-76
2023/09/12 06:09:13;;;;;;;46.47;41.70;;;19.40;99.90;;;;;;5080042;28;20471;-76
2023/09/12 06:11:39;;;;;;;42.40;38.20;;;19.40;99.90;;;;;;5084147;28;20122;-74
2023/09/12 06:14:05;;;;;;;44.60;40.10;;;19.40;99.90;;;;;;5063646;28;20044;-75
2023/09/12 06:16:30;;;;;;;42.92;38.58;;;19.50;99.90;;;;;;5081017;28;20048;-75
2023/09/12 06:18:56;;;;;;;48.65;43.15;;;19.50;99.90;;;;;;5084686;28;20074;-75
2023/09/12 06:21:22;;;;;;;44.88;40.25;;;19.60;99.90;;;;;;5062997;28;20052;-75
2023/09/12 06:24:07;;;;;;;47.95;42.95;;;19.60;99.90;;;;;;5083500;28;20040;-75
2023/09/12 06:26:32;;;;;;;45.53;40.67;;;19.60;99.90;;;;;;5055007;28;20126;-75
2023/09/12 06:28:59;;;;;;;50.03;44.45;;;19.60;99.90;;;;;;5054750;28;20115;-75
2023/09/12 06:31:24;;;;;;;51.93;44.10;;;19.60;99.90;;;;;;5079646;28;20048;-75
2023/09/12 06:33:50;;;;;;;51.35;45.80;;;19.60;99.90;;;;;;5075960;28;20092;-75
2023/09/12 06:36:16;;;;;;;53.35;45.50;;;19.60;99.90;;;;;;5065910;28;20036;-75
2023/09/12 06:38:42;;;;;;;53.25;46.53;;;19.60;99.90;;;;;;5068744;28;20040;-75
2023/09/12 06:41:07;;;;;;;57.85;47.13;;;19.70;99.90;;;;;;5063532;28;20434;-75
2023/09/12 06:43:33;;;;;;;50.45;44.65;;;19.70;99.90;;;;;;5081376;28;20032;-75
2023/09/12 06:45:59;;;;;;;51.55;44.25;;;19.70;99.90;;;;;;5078095;28;20048;-75
2023/09/12 06:48:25;;;;;;;51.03;43.30;;;19.70;99.90;;;;;;5079613;28;20068;-75
2023/09/12 06:50:51;;;;;;;54.28;46.35;;;19.80;99.90;;;;;;5062614;28;20399;-76
2023/09/12 06:53:16;;;;;;;57.03;47.80;;;19.80;99.90;;;;;;5062578;28;20047;-75
2023/09/12 06:55:42;;;;;;;53.67;45.25;;;19.80;99.90;;;;;;5081006;28;20143;-76
2023/09/12 06:58:08;;;;;;;54.78;47.78;;;19.80;99.90;;;;;;5080170;28;20036;-76
2023/09/12 07:00:33;;;;;;;52.60;46.67;;;19.90;99.90;;;;;;5063507;28;20097;-76
2023/09/12 07:02:59;;;;;;;51.30;45.13;;;19.90;99.90;;;;;;5079306;28;20121;-75
2023/09/12 07:05:25;;;;;;;50.55;44.35;;;20.00;99.90;;;;;;5062324;28;20125;-77
2023/09/12 07:07:52;;;;;;;50.35;42.05;;;20.10;99.90;;;;;;5059126;28;20045;-74
2023/09/12 07:10:18;;;;;;;;;;;20.20;99.90;;;;;;5071269;28;20055;-73
2023/09/12 07:12:43;;;;;;;49.10;42.50;;;20.20;99.90;;;;;;5062555;28;19920;-73
2023/09/12 07:15:09;;;;;;;49.78;42.85;;;20.20;99.90;;;;;;5069437;28;20048;-73
2023/09/12 07:17:35;;;;;;;52.25;45.88;;;20.20;99.90;;;;;;5090651;28;20051;-72
2023/09/12 07:20:01;;;;;;;48.63;43.35;;;20.20;99.90;;;;;;5089598;28;20044;-73
2023/09/12 07:22:27;;;;;;;47.92;42.50;;;20.20;99.90;;;;;;5077998;28;20048;-73
2023/09/12 07:24:52;;;;;;;49.33;43.42;;;20.20;99.90;;;;;;5061053;28;20045;-73
2023/09/12 07:27:18;;;;;;;48.13;42.92;;;20.20;99.90;;;;;;5083079;28;20040;-73
2023/09/12 07:29:44;;;;;;;51.72;43.85;;;20.20;99.90;;;;;;5086410;28;20032;-74
2023/09/12 07:32:09;;;;;;;49.72;44.13;;;20.20;99.90;;;;;;5070768;28;20052;-75
2023/09/12 07:34:37;;;;;;;49.67;44.25;;;20.20;99.90;;;;;;5082116;28;20115;-74
2023/09/12 07:37:03;;;;;;;53.22;45.90;;;20.20;99.90;;;;;;5091021;28;20071;-74
2023/09/12 07:39:29;;;;;;;48.55;43.22;;;20.20;99.90;;;;;;5066988;28;20312;-73
2023/09/12 07:41:55;;;;;;;55.47;47.30;;;20.20;99.90;;;;;;5078024;28;20044;-74
2023/09/12 07:44:20;;;;;;;54.55;45.22;;;20.20;99.90;;;;;;5083139;28;20082;-75
2023/09/12 07:46:46;;;;;;;52.72;45.75;;;20.20;99.90;;;;;;5085526;28;20040;-75
2023/09/12 07:49:12;;;;;;;52.40;44.20;;;20.20;99.90;;;;;;5086386;28;20719;-76
2023/09/12 07:51:37;;;;;;;52.03;45.33;;;20.20;99.90;;;;;;5090182;28;20082;-76
2023/09/12 07:54:03;;;;;;;53.85;45.08;;;20.20;99.90;;;;;;5082712;28;20036;-75
2023/09/12 07:56:29;;;;;;;50.30;44.00;;;20.20;99.90;;;;;;5072419;28;20048;-76
2023/09/12 07:58:57;;;;;;;54.25;45.97;;;20.20;99.90;;;;;;5066936;28;20044;-75
2023/09/12 08:01:23;;;;;;;53.03;45.95;;;20.30;99.90;;;;;;5059865;28;20052;-75
2023/09/12 08:03:48;;;;;;;46.78;40.80;;;20.30;99.90;;;;;;5064288;28;20063;-75
2023/09/12 08:06:15;;;;;;;45.08;39.67;;;20.30;99.90;;;;;;5078762;28;20048;-74
2023/09/12 08:08:41;;;;;;;41.17;36.63;;;20.40;99.90;;;;;;5085667;28;20079;-73
2023/09/12 08:11:07;;;;;;;43.40;37.90;;;20.40;99.90;;;;;;5071932;28;20119;-73
2023/09/12 08:13:32;;;;;;;41.88;37.42;;;20.40;99.90;;;;;;5088721;28;20046;-73
2023/09/12 08:15:59;;;;;;;41.92;37.40;;;20.50;99.90;;;;;;5064278;28;20128;-73
2023/09/12 08:18:33;;;;;;;43.67;38.70;;;20.50;99.90;;;;;;5073999;28;20171;-73
2023/09/12 08:20:59;;;;;;;45.50;39.13;;;20.60;99.90;;;;;;5058175;28;20040;-75
2023/09/12 08:23:24;;;;;;;44.00;38.28;;;20.70;99.90;;;;;;5088303;28;20036;-75
2023/09/12 08:25:50;;;;;;;46.05;39.53;;;20.70;99.90;;;;;;5087112;28;20036;-75
2023/09/12 08:28:16;;;;;;;44.72;37.58;;;20.70;99.90;;;;;;5088955;28;20082;-74
2023/09/12 08:30:45;;;;;;;45.55;39.15;;;20.80;99.90;;;;;;5089968;28;20403;-75
2023/09/12 08:33:10;;;;;;;47.67;40.63;;;20.90;99.90;;;;;;5078930;28;20039;-75
2023/09/12 08:35:36;;;;;;;48.33;39.28;;;20.90;99.90;;;;;;5082435;28;20048;-75
2023/09/12 08:38:02;;;;;;;47.38;40.35;;;20.90;99.90;;;;;;5077267;28;20040;-75
2023/09/12 08:40:29;;;;;;;49.45;41.80;;;21.00;99.90;;;;;;5059527;28;20040;-72
2023/09/12 08:42:57;;;;;;;48.25;42.15;;;21.00;99.90;;;;;;5068192;28;20044;-72
2023/09/12 08:45:23;;;;;;;46.95;39.58;;;20.90;99.90;;;;;;5086420;28;20051;-75
2023/09/12 08:47:53;;;;;;;46.22;39.53;;;21.00;99.90;;;;;;5086152;28;20028;-76
2023/09/12 08:50:23;;;;;;;47.08;39.80;;;21.00;99.90;;;;;;5085640;28;20048;-75
2023/09/12 08:52:49;;;;;;;48.80;39.85;;;21.00;99.90;;;;;;5069648;28;20113;-73
2023/09/12 08:55:14;;;;;;;41.83;36.65;;;21.00;99.90;;;;;;5092684;28;20340;-73
2023/09/12 08:57:42;;;;;;;42.05;36.47;;;21.00;99.90;;;;;;5069751;28;20048;-73
2023/09/12 09:00:14;;;;;;;;;;;21.10;99.90;;;;;;5071788;28;20510;-72
2023/09/12 09:02:40;;;;;;;41.80;35.63;;;21.10;99.90;;;;;;5083258;28;19931;-73
2023/09/12 09:05:09;;;;;;;40.17;35.80;;;21.10;99.90;;;;;;5070460;28;20044;-72
2023/09/12 09:07:39;;;;;;;41.17;36.60;;;21.10;99.90;;;;;;5041718;28;20644;-72
2023/09/12 09:10:09;;;;;;;41.17;36.55;;;21.10;99.90;;;;;;5067820;28;20071;-72
2023/09/12 09:12:39;;;;;;;42.15;36.80;;;21.00;99.90;;;;;;5073587;28;20492;-72
2023/09/12 09:15:28;;;;;;;44.58;39.58;;;21.00;99.90;;;;;;5076717;28;20044;-74
2023/09/12 09:17:55;;;;;;;40.38;36.00;;;21.10;99.90;;;;;;5066688;28;20127;-73
2023/09/12 09:20:34;;;;;;;40.22;34.92;;;21.10;99.90;;;;;;5073767;28;20039;-72
2023/09/12 09:23:05;;;;;;;41.33;36.67;;;21.20;99.90;;;;;;5074113;28;20119;-72
2023/09/12 09:25:34;;;;;;;42.20;37.58;;;21.20;99.90;;;;;;5072003;28;20067;-72
2023/09/12 09:28:17;;;;;;;41.75;37.00;;;21.30;99.90;;;;;;5071115;28;20075;-73
2023/09/12 09:30:45;;;;;;;40.08;35.78;;;21.30;99.90;;;;;;5066775;28;20109;-73
2023/09/12 09:33:12;;;;;;;37.83;33.83;;;21.30;99.90;;;;;;5072584;28;20052;-72
2023/09/12 09:35:40;;;;;;;35.95;32.15;;;21.30;99.90;;;;;;5091366;28;20141;-73
2023/09/12 09:38:07;;;;;;;38.53;32.60;;;21.30;99.90;;;;;;5066799;28;20121;-72
2023/09/12 09:40:34;;;;;;;39.03;34.72;;;21.20;99.90;;;;;;5071716;28;20127;-73
2023/09/12 09:43:01;;;;;;;36.28;32.30;;;21.30;99.90;;;;;;5069617;28;20043;-80
2023/09/12 09:45:32;;;;;;;40.15;35.03;;;21.30;99.90;;;;;;5073838;28;20042;-80
2023/09/12 09:47:59;;;;;;;36.97;33.03;;;21.30;99.90;;;;;;5087525;28;20044;-78
2023/09/12 09:50:26;;;;;;;37.05;32.70;;;21.30;99.90;;;;;;5080991;28;20122;-79
2023/09/12 09:52:56;;;;;;;36.75;32.78;;;21.40;99.90;;;;;;5094301;28;20128;-79
2023/09/12 09:55:22;;;;;;;36.00;32.10;;;21.40;99.90;;;;;;5073742;28;20047;-79
2023/09/12 09:57:48;;;;;;;36.65;32.35;;;21.40;99.90;;;;;;5095753;28;20074;-78
2023/09/12 10:00:14;;;;;;;35.88;32.05;;;21.50;99.90;;;;;;5076749;28;20126;-79
2023/09/12 10:02:42;;;;;;;36.17;32.42;;;21.60;99.90;;;;;;5076253;28;20367;-78
2023/09/12 10:05:10;;;;;;;37.97;33.60;;;21.60;99.90;;;;;;5070061;28;20127;-79
2023/09/12 10:07:38;;;;;;;36.53;31.60;;;21.70;99.90;;;;;;5089078;28;20044;-78
2023/09/12 10:10:04;;;;;;;36.40;32.50;;;21.80;99.90;;;;;;5090100;28;20028;-80
2023/09/12 10:12:41;;;;;;;35.05;31.30;;;21.90;99.90;;;;;;5083573;28;20044;-73
2023/09/12 10:15:07;;;;;;;;;;;22.10;99.90;;;;;;5085085;28;20376;-73
2023/09/12 10:17:36;;;;;;;35.92;32.10;;;22.10;99.90;;;;;;5072194;28;20370;-73
2023/09/12 10:20:06;;;;;;;31.75;28.45;;;22.20;99.90;;;;;;5058781;28;20045;-73
2023/09/12 10:22:46;;;;;;;31.27;27.90;;;22.20;99.90;;;;;;5066940;28;20483;-75
2023/09/12 10:25:13;;;;;;;31.05;27.75;;;22.30;99.90;;;;;;5084253;28;20044;-73
2023/09/12 10:27:39;;;;;;;32.60;29.30;;;22.40;99.90;;;;;;5089516;28;20048;-73
2023/09/12 10:30:07;;;;;;;32.33;29.13;;;22.50;99.90;;;;;;5086590;28;20043;-74
2023/09/12 10:32:33;;;;;;;31.70;28.30;;;22.60;99.90;;;;;;5061886;28;20048;-72
2023/09/12 10:34:59;;;;;;;31.13;27.85;;;22.70;99.90;;;;;;5065742;28;20602;-72
2023/09/12 10:37:28;;;;;;;31.38;28.05;;;22.80;99.90;;;;;;5067199;28;20071;-73
2023/09/12 10:39:55;;;;;;;29.88;26.73;;;22.80;99.90;;;;;;5071007;28;20052;-74
2023/09/12 10:42:21;;;;;;;31.17;27.90;;;22.80;99.90;;;;;;5047160;28;20047;-74
2023/09/12 10:44:48;;;;;;;32.03;28.67;;;22.90;99.90;;;;;;5086329;28;20051;-73
2023/09/12 10:47:14;;;;;;;31.33;27.97;;;22.90;99.90;;;;;;5090967;28;20040;-75
2023/09/12 10:49:43;;;;;;;29.77;26.75;;;22.90;99.90;;;;;;5076017;28;20362;-74
2023/09/12 10:52:09;;;;;;;29.20;26.10;;;23.00;99.90;;;;;;5061274;28;20051;-74
2023/09/12 10:54:39;;;;;;;28.33;25.33;;;23.10;99.90;;;;;;5072344;28;20417;-75
2023/09/12 10:57:13;;;;;;;30.75;27.50;;;23.20;99.90;;;;;;5090069;28;20048;-75
2023/09/12 11:00:13;;;;;;;32.20;27.73;;;23.30;99.90;;;;;;5087870;28;20093;-75
2023/09/12 11:02:40;;;;;;;31.75;28.45;;;23.40;99.90;;;;;;5077986;28;20039;-75
2023/09/12 11:05:26;;;;;;;30.75;27.65;;;23.40;99.90;;;;;;5071776;28;20044;-75
2023/09/12 11:07:55;;;;;;;;;;;23.40;99.90;;;;;;5066121;28;20087;-74
2023/09/12 11:10:22;;;;;;;31.20;27.92;;;23.50;99.90;;;;;;5076897;28;19931;-73
2023/09/12 11:12:50;;;;;;;29.92;26.80;;;23.50;99.90;;;;;;5082596;28;20039;-75
2023/09/12 11:15:17;;;;;;;29.85;26.65;;;23.60;99.90;;;;;;5060679;28;20063;-73
2023/09/12 11:18:04;;;;;;;31.35;27.88;;;23.60;99.90;;;;;;5078866;28;20117;-74
2023/09/12 11:20:49;;;;;;;29.95;26.55;;;23.80;99.90;;;;;;5081503;28;20044;-75
2023/09/12 11:23:15;;;;;;;30.60;27.48;;;23.90;99.90;;;;;;5061250;28;20055;-74
2023/09/12 11:25:41;;;;;;;30.70;27.50;;;24.00;99.90;;;;;;5067320;28;20051;-75
2023/09/12 11:28:06;;;;;;;31.38;28.08;;;24.00;99.90;;;;;;5084105;28;20064;-75
2023/09/12 11:30:33;;;;;;;27.85;24.98;;;24.10;99.90;;;;;;5065876;28;20044;-74
2023/09/12 11:33:02;;;;;;;;;;;24.20;99.90;;;;;;5069827;28;20303;-75
2023/09/12 11:35:28;;;;;;;29.98;26.75;;;24.20;99.90;;;;;;5083650;28;19924;-73
2023/09/12 11:37:59;;;;;;;27.83;25.05;;;24.20;99.90;;;;;;5072724;28;20102;-73
2023/09/12 11:40:32;;;;;;;28.20;25.38;;;24.20;99.90;;;;;;5067987;28;20054;-71
2023/09/12 11:42:58;;;;;;;27.83;24.83;;;24.10;99.90;;;;;;5068673;28;20032;-72
2023/09/12 11:45:24;;;;;;;27.75;24.95;;;24.10;99.90;;;;;;5063395;28;20051;-72
2023/09/12 11:47:50;;;;;;;28.33;25.45;;;24.10;99.90;;;;;;5069163;28;20059;-72
2023/09/12 11:50:39;;;;;;;27.53;24.70;;;24.10;99.90;;;;;;5084605;28;20127;-71
2023/09/12 11:53:04;;;;;;;27.13;24.20;;;24.10;99.90;;;;;;5085603;28;20040;-72
2023/09/12 11:55:43;;;;;;;27.17;24.13;;;24.10;99.90;;;;;;5088879;28;20040;-72
2023/09/12 11:58:11;;;;;;;26.20;22.67;;;24.10;99.90;;;;;;5060504;28;20048;-71
2023/09/12 12:00:37;;;;;;;25.85;23.25;;;24.20;99.90;;;;;;5086377;28;20491;-71
2023/09/12 12:03:04;;;;;;;27.27;24.63;;;24.30;99.90;;;;;;5076396;28;20473;-72
2023/09/12 12:05:30;;;;;;;;;;;24.50;99.90;;;;;;5081867;28;20083;-72
2023/09/12 12:07:56;;;;;;;26.30;23.70;;;24.60;99.90;;;;;;5088622;28;20287;-69
2023/09/12 12:10:24;;;;;;;25.47;22.77;;;24.70;99.90;;;;;;5081400;28;20126;-69
2023/09/12 12:12:53;;;;;;;24.42;22.13;;;24.80;99.90;;;;;;5087448;28;20044;-71
2023/09/12 12:15:18;;;;;;;23.67;21.17;;;24.80;99.90;;;;;;5087428;28;20395;-72
2023/09/12 12:17:44;;;;;;;25.65;23.13;;;24.80;99.90;;;;;;5069502;28;20051;-72
2023/09/12 12:20:11;;;;;;;25.83;23.33;;;24.80;99.90;;;;;;5052382;28;20053;-72
2023/09/12 12:22:40;;;;;;;23.88;21.58;;;24.90;99.90;;;;;;5087009;28;20544;-74
2023/09/12 12:25:10;;;;;;;20.55;18.30;;;24.90;99.90;;;;;;5082762;28;20048;-71
2023/09/12 12:27:38;;;;;;;20.83;18.73;;;24.90;99.90;;;;;;5069345;28;20130;-71
2023/09/12 12:30:10;;;;;;;22.52;20.13;;;25.00;99.90;;;;;;5088722;28;20032;-72